Airfield :
LOGIN :

Register | Disclaimer

   EN    FR    IT 

 










Legend :    VFR   Marginal VFR   IFR   Intensive IFR   Very Intensive IFR
Visi :
Ceiling :
>= 8 km
>= 3000ft
5 to 8 km
1000 to 3000 ft
1500m to 5 km
500 to 1000 ft
800 to 1500m
200 to 500 ft
< 800m
< 200 ft
Symbols :   Thunderstorms  Fog  Heavy snow  Heavy precipitations  Wind > 20 kt
SIGMETs :     Misc.  Thunderstorms  Icing  Turbulence  Mountain Waves  Volcanic Ashes







- Airport Elevation : 1363 ft


ETIC - Grafenwohr Army Air Field

CURRENT METAR :
  • 222156Z AUTO 00000KT 9999 CLR 13/10 A2994 RMK AO2 SLP130 T01250095 $

EXPIRED METARs :
  • 222056Z AUTO 00000KT 9999 CLR 14/08 A2994 RMK AO2 SLP132 T01390081 52008 $
  • 221956Z AUTO 00000KT 9999 CLR 16/08 A2993 RMK AO2 SLP128 T01590076 $

TAF TAF ETIC
Valid from the 22 at 22:00 until the 24 at 04:00 UTC


222202Z 2222/2404 24006KT 9999 SCT080 QNH2991INS
BECMG 2308/2309 25009KT 9999 BKN050 QNH2995INS
BECMG 2310/2311 28012G18KT 8000 -SHRA BKN030 QNH2992INS
TEMPO 2313/2316 27015G25KT 6000 -TSRA BKN030CB
BECMG 2315/2316 28012KT 9999 NSW BKN025 QNH2994INS
BECMG 2320/2321 27006KT 9999 BKN010 QNH3000INS TX22/2314Z TN09/2304Z
No reported NOTAMs for that airfield.



MET'MAP, your aeronautical weather chart ! - Copyright ORBIFLY December 2007 - Disclaimer

ORBIFLY MET'MAP TEAM :

Programming & Development : Alexandra Zaïnal
Concept & Development : Baudouin d'Aumeries
Co-Development & Prog : Marc-Olivier Méhu
Technical & hardware support : Manuel Goepfert

Contact : metmap@orbifly.com




SOURCES & CREDITS :

   NOAA